ADDS METAR Data INFO
IDs: Format: Raw Decoded Include TAF

Data at: 0600 UTC 25 Jun 2018

KHQZ 250555Z AUTO 16011KT 10SM CLR 28/22 A2987 RMK AO1 T02760215 10344 20276 403640265
KHQZ 250535Z AUTO 16011KT 10SM CLR 28/22 A2987 RMK AO1 T02800215
KHQZ 250515Z AUTO 16013KT 10SM CLR 29/21 A2988 RMK AO1 T02850213
KHQZ 250455Z AUTO 16012KT 10SM CLR 29/21 A2988 RMK AO1 T02890211
KHQZ 250435Z AUTO 15012G18KT 10SM CLR 29/21 A2988 RMK AO1 T02940208
KHQZ 250415Z AUTO 15013KT 10SM CLR 30/21 A2988 RMK AO1 T02970205
KHQZ 250355Z AUTO 15010G16KT 10SM CLR 30/20 A2987 RMK AO1 T02980202
KHQZ 250335Z AUTO 15011KT 10SM CLR 30/20 A2987 RMK AO1 T03010201
KHQZ 250315Z AUTO 14012G16KT 10SM CLR 30/20 A2986 RMK AO1 T03040200
KHQZ 250255Z AUTO 14011KT 10SM CLR 31/20 A2986 RMK AO1 T03050200
KHQZ 250235Z AUTO 14011KT 10SM CLR 31/20 A2985 RMK AO1 T03080201
KHQZ 250215Z AUTO 14012KT 10SM CLR 31/20 A2984 RMK AO1 T03110198
KHQZ 250155Z AUTO 14011KT 10SM CLR 32/20 A2984 RMK AO1 T03160198
KHQZ 250050Z 12014KT 10SM SCT075 33/21 A2986
KHQZ 242350Z 12012G20KT 10SM BKN065 34/18 A2985
KHQZ 242250Z 12015G25KT 10SM BKN060 35/18 A2985
KHQZ 242150Z 15020G30KT 10SM FEW050 36/19 A2981
KHQZ 242050Z 13024G28KT 10SM FEW050 36/19 A2981
KHQZ 241950Z 16017G27KT 10SM SCT050 34/19 A2982
KHQZ 241850Z 17013G23KT 10SM SCT047 34/19 A2986
KHQZ 241750Z 18014G23KT 10SM SCT047 33/19 A2988
KHQZ 241650Z 15017G21KT 10SM SCT041 33/20 A2988
KHQZ 241550Z 16012G17KT 10SM SCT033 31/21 A2989
KHQZ 241450Z 12007KT 10SM BKN033 OVC045 28/22 A2991
KHQZ 241350Z 16005KT 10SM OVC025 27/22 A2989
KHQZ 241250Z 16012G17KT 10SM BKN029 OVC039 27/21 A2985
KHQZ 241150Z 17011G21KT 10SM OVC027 27/21 A2982
KHQZ 241135Z AUTO 19011KT 10SM OVC027 27/21 A2982 RMK AO1 T02670211
KHQZ 241115Z AUTO 18011G17KT 10SM OVC027 27/21 A2980 RMK AO1 T02650211
KHQZ 241055Z AUTO 17014G18KT 10SM BKN027 27/21 A2977 RMK AO1 T02650211
KHQZ 241035Z AUTO 16014G20KT 10SM BKN027 BKN032 27/21 A2976 RMK AO1 T02650212
KHQZ 241015Z AUTO 16012G22KT 10SM BKN025 27/21 A2974 RMK AO1 T02650212
KHQZ 240955Z AUTO 17015G21KT 10SM BKN027 BKN031 27/21 A2974 RMK AO1 T02660212
KHQZ 240935Z AUTO 17018G31KT 10SM CLR 27/21 A2971 RMK AO1 T02660212
KHQZ 240915Z AUTO 16021G27KT 10SM CLR 27/21 A2971 RMK AO1 T02660214
KHQZ 240855Z AUTO 16020G27KT 10SM CLR 27/21 A2971 RMK AO1 T02680214
KHQZ 240835Z AUTO 16021G28KT 10SM CLR 27/21 A2971 RMK AO1 T02690214
KHQZ 240815Z AUTO 16017G28KT 10SM CLR 27/22 A2972 RMK AO1 T02700215
KHQZ 240755Z AUTO 16022G30KT 10SM CLR 27/22 A2974 RMK AO1 T02720215
KHQZ 240735Z AUTO 17021G27KT 10SM CLR 28/22 A2978 RMK AO1 T02750215
KHQZ 240715Z AUTO 16019G25KT 10SM CLR 28/21 A2981 RMK AO1 T02760213
KHQZ 240655Z AUTO 17015G21KT 10SM CLR 28/21 A2983 RMK AO1 T02780213
KHQZ 240635Z AUTO 18012KT 10SM CLR 28/21 A2984 RMK AO1 T02800214
KHQZ 240615Z AUTO 19010KT 10SM CLR 28/22 A2985 RMK AO1 T02830215
KHQZ 240555Z AUTO 17011KT 10SM CLR 28/21 A2983 RMK AO1 T02830214 10334 20283 403500253
KHQZ 240535Z AUTO 17011G17KT 10SM CLR 29/21 A2983 RMK AO1 T02850213
KHQZ 240515Z AUTO 16010KT 10SM CLR 29/21 A2982 RMK AO1 T02860213
KHQZ 240455Z AUTO 15012KT 10SM CLR 29/21 A2981 RMK AO1 T02880212
KHQZ 240435Z AUTO 15011KT 10SM CLR 29/21 A2981 RMK AO1 T02900210
KHQZ 240415Z AUTO 14008KT 10SM CLR 29/21 A2981 RMK AO1 T02900208
KHQZ 240355Z AUTO 13009KT 10SM CLR 29/21 A2979 RMK AO1 T02920208
KHQZ 240335Z AUTO 14010KT 10SM CLR 30/21 A2978 RMK AO1 T02960208
KHQZ 240320Z AUTO 14010KT 10SM SCT065 30/21 A2977 RMK AO1 T02970208
KHQZ 240255Z AUTO 13010KT 10SM BKN065 30/21 A2976 RMK AO1 T03030207
KHQZ 240235Z AUTO 13010KT 10SM OVC065 31/21 A2976 RMK AO1 T03060206
KHQZ 240215Z AUTO 13010KT 10SM OVC065 31/21 A2976 RMK AO1 T03080205
KHQZ 240155Z AUTO 12010KT 10SM OVC065 31/20 A2976 RMK AO1 T03110203
KHQZ 240050Z 12012G17KT 10SM SCT055 32/19 A2976
KHQZ 232350Z 14014G23KT 10SM SCT055 34/19 A2975
KHQZ 232250Z 12015G20KT 10SM SCT055 34/19 A2976
KHQZ 232150Z 13014G24KT 10SM SCT050 34/19 A2977
KHQZ 232050Z 14016G21KT 10SM BKN048 34/20 A2978
KHQZ 231950Z 15013G20KT 10SM BKN041 34/21 A2979
KHQZ 231850Z 14012G21KT 10SM BKN034 33/23 A2982